Time;durP1;ratioP1;P1;durP2;ratioP2;P2;SDS_P1;SDS_P2;PMS_P1;PMS_P2;Temp;Humidity;BMP_temperature;BMP_pressure;BME280_temperature;BME280_humidity;BME280_pressure;Samples;Min_cycle;Max_cycle;Signal;HPM_P1;HPM_P2
2021/08/21 00:02:14;;;;;;;1.10;1.00;;;;;;;12.80;68.16;100719.69;4984052;28;20232;-67
2021/08/21 00:04:44;;;;;;;1.07;0.97;;;;;;;12.89;67.99;100738.72;4974118;28;20204;-67
2021/08/21 00:07:12;;;;;;;1.00;0.97;;;;;;;12.91;67.67;100736.78;4972065;28;20225;-67
2021/08/21 00:09:40;;;;;;;1.37;1.03;;;;;;;12.91;67.38;100735.91;4976740;28;20214;-67
2021/08/21 00:12:08;;;;;;;1.13;0.90;;;;;;;12.96;67.58;100739.09;4973304;28;20244;-67
2021/08/21 00:14:37;;;;;;;1.37;1.10;;;;;;;12.98;67.76;100742.53;4972158;28;20192;-67
2021/08/21 00:17:05;;;;;;;2.87;1.20;;;;;;;12.59;67.05;100671.03;4971486;28;20200;-67
2021/08/21 00:19:33;;;;;;;2.03;0.90;;;;;;;12.99;67.37;100745.13;4985996;28;20228;-67
2021/08/21 00:22:03;;;;;;;2.67;1.00;;;;;;;12.99;66.93;100747.81;4974574;28;20257;-67
2021/08/21 00:24:31;;;;;;;1.10;1.00;;;;;;;12.97;67.19;100747.06;4971470;28;20204;-67
2021/08/21 00:26:59;;;;;;;0.90;0.90;;;;;;;12.95;67.36;100746.34;5000051;28;20209;-67
2021/08/21 00:29:27;;;;;;;1.20;1.10;;;;;;;12.92;67.76;100749.28;4971514;28;20227;-67
2021/08/21 00:31:55;;;;;;;0.93;0.90;;;;;;;12.48;67.02;100685.31;4971924;28;20646;-67
2021/08/21 00:34:24;;;;;;;1.43;0.90;;;;;;;12.90;66.92;100755.75;4971335;28;20204;-67
2021/08/21 00:36:51;;;;;;;1.10;1.07;;;;;;;12.88;66.89;100752.31;4978566;28;20568;-67
2021/08/21 00:39:21;;;;;;;1.07;1.00;;;;;;;12.94;67.32;100760.78;4971361;28;20740;-67
2021/08/21 00:41:49;;;;;;;1.23;1.00;;;;;;;12.96;67.45;100760.66;4996845;28;20213;-67
2021/08/21 00:44:17;;;;;;;2.47;0.90;;;;;;;12.97;67.30;100773.16;4981804;28;20206;-67
2021/08/21 00:46:58;;;;;;;1.37;1.00;;;;;;;12.95;67.49;100765.22;4971433;28;20202;-67
2021/08/21 00:49:26;;;;;;;1.00;1.00;;;;;;;12.95;66.74;100777.81;4999708;28;20225;-67
2021/08/21 00:51:54;;;;;;;2.93;1.00;;;;;;;12.87;66.89;100772.16;4978193;28;20279;-67
2021/08/21 00:54:24;;;;;;;0.90;0.90;;;;;;;12.83;66.90;100785.00;4990082;28;20220;-67
2021/08/21 00:56:54;;;;;;;1.07;0.80;;;;;;;12.79;67.56;100782.66;4994317;28;20559;-67
2021/08/21 00:59:22;;;;;;;0.93;0.93;;;;;;;12.78;67.59;100778.25;4988350;28;20208;-67
2021/08/21 01:01:52;;;;;;;2.23;0.83;;;;;;;12.77;67.04;100781.91;4979643;28;20230;-67
2021/08/21 01:04:20;;;;;;;7.20;0.97;;;;;;;12.78;67.10;100783.63;5009692;28;20285;-67
2021/08/21 01:06:48;;;;;;;1.07;0.90;;;;;;;12.79;67.12;100785.34;4996075;28;20246;-67
2021/08/21 01:09:16;;;;;;;0.90;0.90;;;;;;;12.72;67.16;100780.44;4992912;28;20325;-67
2021/08/21 01:11:47;;;;;;;1.23;1.07;;;;;;;12.61;68.36;100782.25;5000285;28;20210;-67
2021/08/21 01:14:15;;;;;;;1.20;0.97;;;;;;;12.45;68.83;100777.13;5005304;28;20201;-67
2021/08/21 01:16:43;;;;;;;1.20;1.00;;;;;;;12.43;68.08;100779.94;4997025;28;20714;-67
2021/08/21 01:19:12;;;;;;;0.90;0.90;;;;;;;12.38;68.52;100771.34;5012847;28;20673;-67
2021/08/21 01:21:40;;;;;;;1.13;1.00;;;;;;;12.40;68.06;100772.09;5011018;28;20284;-67
2021/08/21 01:24:09;;;;;;;0.80;0.80;;;;;;;12.38;68.03;100775.88;5012097;28;20210;-67
2021/08/21 01:26:37;;;;;;;0.93;0.80;;;;;;;12.31;68.51;100780.00;5006509;28;20705;-67
2021/08/21 01:29:09;;;;;;;0.73;0.73;;;;;;;12.25;67.76;100785.84;5028933;28;20220;-67
2021/08/21 01:31:52;;;;;;;1.73;0.90;;;;;;;12.18;67.87;100785.44;5012679;28;20271;-67
2021/08/21 01:34:21;;;;;;;0.80;0.80;;;;;;;12.16;68.20;100782.00;5013762;28;20234;-67
2021/08/21 01:36:51;;;;;;;1.70;0.90;;;;;;;12.10;67.98;100779.75;5012567;28;20216;-67
2021/08/21 01:39:38;;;;;;;1.27;1.10;;;;;;;12.06;67.87;100781.81;5013833;28;20208;-67
2021/08/21 01:42:25;;;;;;;1618.60;710.20;;;;;;;12.01;68.51;100789.38;4998986;28;20208;-67
2021/08/21 01:44:55;;;;;;;225.03;111.70;;;;;;;11.97;67.91;100787.88;4990695;28;20211;-67
2021/08/21 01:47:23;;;;;;;19.53;12.10;;;;;;;11.93;68.65;100802.50;4992249;28;20209;-67
2021/08/21 01:49:59;;;;;;;15.97;10.27;;;;;;;11.95;68.44;100795.22;4979759;28;20227;-67
2021/08/21 01:52:28;;;;;;;31.60;16.90;;;;;;;11.84;68.47;100776.28;4991803;28;20199;-67
2021/08/21 01:54:57;;;;;;;10.07;5.73;;;;;;;12.01;67.81;100785.81;4991659;28;20200;-67
2021/08/21 01:57:25;;;;;;;7.13;4.53;;;;;;;12.06;67.61;100794.41;4992271;28;20204;-67
2021/08/21 02:00:28;;;;;;;12.37;6.97;;;;;;;12.08;68.09;100790.63;4989425;28;20210;-67
2021/08/21 02:02:59;;;;;;;7.73;5.33;;;;;;;12.04;67.39;100781.06;4998237;28;20263;-67
2021/08/21 02:05:30;;;;;;;2.43;2.20;;;;;;;12.10;67.77;100788.69;4989719;28;20203;-67
2021/08/21 02:07:58;;;;;;;5.23;3.60;;;;;;;12.07;67.23;100793.44;4980939;28;20215;-67
2021/08/21 02:10:29;;;;;;;2.10;1.60;;;;;;;12.01;67.92;100793.91;4990790;28;20211;-67
2021/08/21 02:12:57;;;;;;;2.00;1.43;;;;;;;11.91;68.45;100792.81;4980046;28;20681;-67
2021/08/21 02:15:29;;;;;;;5.83;3.00;;;;;;;11.86;67.70;100795.84;4991829;28;20294;-67
2021/08/21 02:18:01;;;;;;;13.37;11.30;;;;;;;11.80;67.73;100791.78;5000276;28;20562;-67
2021/08/21 02:20:42;;;;;;;11.20;9.90;;;;;;;11.75;68.36;100793.06;4991007;28;20221;-67
2021/08/21 02:23:18;;;;;;;3.40;2.77;;;;;;;11.71;68.45;100805.88;4980089;28;20230;-67
2021/08/21 02:25:46;;;;;;;3.40;2.13;;;;;;;11.71;67.72;100796.94;4990230;28;20710;-67
2021/08/21 02:28:18;;;;;;;1.60;1.50;;;;;;;11.67;68.47;100799.00;4978673;28;20220;-67
2021/08/21 02:30:48;;;;;;;1.57;1.40;;;;;;;11.62;68.09;100806.50;4979984;28;20213;-67
2021/08/21 02:33:16;;;;;;;0.90;0.90;;;;;;;11.58;68.49;100806.84;4994556;28;20309;-67
2021/08/21 02:35:44;;;;;;;0.90;0.90;;;;;;;11.50;68.39;100807.38;4991633;28;20232;-67
2021/08/21 02:38:12;;;;;;;0.77;0.77;;;;;;;11.36;68.16;100794.06;4974462;28;20275;-67
2021/08/21 02:40:40;;;;;;;1.00;0.90;;;;;;;11.39;68.82;100813.53;4973496;28;20234;-67
2021/08/21 02:43:09;;;;;;;2.40;1.10;;;;;;;11.36;68.69;100813.75;4974635;28;20192;-66
2021/08/21 02:45:37;;;;;;;1.33;0.90;;;;;;;11.36;68.55;100824.50;4982055;28;20203;-66
2021/08/21 02:48:07;;;;;;;3.77;1.07;;;;;;;11.34;68.55;100813.00;4989002;28;20229;-67
2021/08/21 02:50:35;;;;;;;1.60;0.80;;;;;;;11.32;68.57;100822.09;4973634;28;20202;-67
2021/08/21 02:53:04;;;;;;;1.07;1.00;;;;;;;11.31;68.24;100815.00;4977638;28;20232;-67
2021/08/21 02:55:34;;;;;;;0.77;0.77;;;;;;;11.28;68.51;100831.34;4977139;28;20213;-67
2021/08/21 02:58:02;;;;;;;2.67;1.00;;;;;;;11.27;68.49;100830.50;4991389;28;20208;-67
2021/08/21 03:00:36;;;;;;;1.27;0.90;;;;;;;11.25;68.53;100837.81;4977533;28;20294;-67
2021/08/21 03:03:09;;;;;;;0.70;0.70;;;;;;;11.04;69.09;100810.59;4991119;28;20238;-68
2021/08/21 03:05:41;;;;;;;1.43;0.80;;;;;;;11.19;68.69;100828.34;4991261;28;20208;-67
2021/08/21 03:08:09;;;;;;;0.90;0.90;;;;;;;11.18;69.36;100836.53;4990818;28;20210;-68
2021/08/21 03:10:44;;;;;;;0.73;0.73;;;;;;;11.11;69.81;100829.84;4988019;28;20206;-67
2021/08/21 03:13:13;;;;;;;1.67;0.80;;;;;;;11.10;69.00;100828.13;4983253;28;20223;-67
2021/08/21 03:15:41;;;;;;;0.70;0.70;;;;;;;11.16;68.72;100838.44;4991019;28;20494;-67
2021/08/21 03:18:12;;;;;;;1.10;0.90;;;;;;;11.05;68.83;100792.66;4990362;28;20664;-67
2021/08/21 03:20:43;;;;;;;0.90;0.90;;;;;;;11.23;69.05;100826.31;4986656;28;20237;-67
2021/08/21 03:23:12;;;;;;;0.90;0.90;;;;;;;11.28;68.83;100834.91;4985542;28;20260;-67
2021/08/21 03:25:40;;;;;;;1.53;0.90;;;;;;;11.34;68.05;100834.50;5013502;28;20274;-67
2021/08/21 03:28:09;;;;;;;0.70;0.70;;;;;;;11.39;67.72;100832.34;4981236;28;20219;-67
2021/08/21 03:30:38;;;;;;;0.70;0.63;;;;;;;11.43;67.98;100833.84;5002505;28;20226;-66
2021/08/21 03:33:17;;;;;;;1.17;1.07;;;;;;;11.42;67.79;100825.91;4976578;28;20278;-66
2021/08/21 03:35:46;;;;;;;0.70;0.70;;;;;;;11.47;68.21;100837.19;4985191;28;20223;-67
2021/08/21 03:38:15;;;;;;;1.50;0.83;;;;;;;11.54;68.11;100840.31;4989267;28;20230;-67
2021/08/21 03:41:06;;;;;;;0.77;0.77;;;;;;;11.55;68.28;100842.03;4986632;28;20237;-66
2021/08/21 03:43:43;;;;;;;0.83;0.80;;;;;;;11.62;69.10;100837.91;4987315;28;20301;-66
2021/08/21 03:46:12;;;;;;;0.73;0.70;;;;;;;11.69;68.30;100842.78;4979841;28;20202;-66
2021/08/21 03:48:41;;;;;;;0.70;0.70;;;;;;;11.58;68.40;100822.97;4989066;28;20623;-66
2021/08/21 03:51:09;;;;;;;0.83;0.60;;;;;;;11.72;68.68;100833.63;4992248;28;20562;-66
2021/08/21 03:53:43;;;;;;;0.63;0.63;;;;;;;11.85;68.46;100849.78;4999483;28;20202;-66
2021/08/21 03:56:15;;;;;;;0.70;0.70;;;;;;;11.89;68.16;100852.13;4982069;28;20228;-67
2021/08/21 03:58:50;;;;;;;0.50;0.50;;;;;;;11.93;68.24;100850.09;4973886;28;20197;-66
2021/08/21 04:01:18;;;;;;;0.60;0.53;;;;;;;11.96;69.49;100845.38;4994008;28;20218;-67
2021/08/21 04:03:52;;;;;;;0.67;0.67;;;;;;;12.06;69.39;100850.94;5005147;28;20228;-66
2021/08/21 04:06:21;;;;;;;0.50;0.50;;;;;;;12.12;69.10;100851.34;4989940;28;20218;-66
2021/08/21 04:08:49;;;;;;;0.40;0.40;;;;;;;12.19;69.18;100845.53;4989667;28;20238;-67
2021/08/21 04:11:27;;;;;;;0.53;0.53;;;;;;;12.29;69.23;100858.22;4989713;28;20556;-66
2021/08/21 04:14:08;;;;;;;0.50;0.50;;;;;;;11.91;69.55;100787.44;4989643;28;20211;-67
2021/08/21 04:16:37;;;;;;;0.70;0.70;;;;;;;12.42;69.98;100867.09;4989524;28;20483;-66
2021/08/21 04:19:07;;;;;;;6.03;0.80;;;;;;;12.53;69.56;100874.38;4990402;28;20242;-66
2021/08/21 04:21:39;;;;;;;0.50;0.50;;;;;;;12.60;68.99;100864.91;4988463;28;20304;-66
2021/08/21 04:24:18;;;;;;;2.10;0.80;;;;;;;12.69;68.73;100876.81;4974082;28;20212;-66
2021/08/21 04:26:51;;;;;;;0.70;0.70;;;;;;;12.77;69.82;100873.53;4989086;28;20588;-66
2021/08/21 04:29:20;;;;;;;0.50;0.50;;;;;;;12.81;70.03;100869.63;5003462;28;20215;-66
2021/08/21 04:31:48;;;;;;;0.80;0.70;;;;;;;12.89;70.19;100880.72;5000484;28;20217;-67
2021/08/21 04:34:19;;;;;;;0.63;0.63;;;;;;;12.97;70.50;100881.00;4995454;28;20219;-66
2021/08/21 04:36:47;;;;;;;0.70;0.70;;;;;;;12.68;69.97;100827.47;5009197;28;20551;-67
2021/08/21 04:39:19;;;;;;;0.87;0.53;;;;;;;13.09;69.94;100887.28;5008653;28;20210;-67
2021/08/21 04:41:50;;;;;;;1.73;0.57;;;;;;;13.20;69.70;100884.69;5008684;28;20252;-66
2021/08/21 04:44:19;;;;;;;1.23;0.80;;;;;;;13.22;69.46;100880.91;5002671;28;20224;-66
2021/08/21 04:46:47;;;;;;;0.70;0.70;;;;;;;13.38;69.44;100890.50;5008873;28;20239;-67
2021/08/21 04:49:19;;;;;;;2.00;0.60;;;;;;;13.45;69.50;100900.69;5008593;28;20212;-66
2021/08/21 04:51:47;;;;;;;1.13;0.70;;;;;;;13.54;69.04;100891.03;4991600;28;20208;-67
2021/08/21 04:54:19;;;;;;;0.83;0.57;;;;;;;13.64;68.98;100900.13;4989028;28;20263;-67
2021/08/21 04:56:48;;;;;;;0.80;0.80;;;;;;;13.68;69.97;100885.41;4986285;28;20209;-67
2021/08/21 04:59:23;;;;;;;0.50;0.50;;;;;;;13.77;70.05;100900.00;4978741;28;20376;-66
2021/08/21 05:01:56;;;;;;;0.70;0.70;;;;;;;13.89;69.75;100901.75;4982756;28;20228;-67
2021/08/21 05:04:26;;;;;;;0.47;0.47;;;;;;;13.99;69.69;100903.59;5004362;28;20478;-68
2021/08/21 05:06:54;;;;;;;0.50;0.50;;;;;;;14.10;69.36;100904.59;4986001;28;20448;-66
2021/08/21 05:09:23;;;;;;;1.80;0.60;;;;;;;14.18;70.44;100912.94;4994097;28;20499;-66
2021/08/21 05:11:56;;;;;;;2.30;0.60;;;;;;;14.34;69.47;100917.97;4988318;28;20219;-67
2021/08/21 05:14:25;;;;;;;0.50;0.50;;;;;;;14.47;68.78;100925.00;4997599;28;20270;-67
2021/08/21 05:16:53;;;;;;;0.73;0.73;;;;;;;14.56;70.00;100917.97;4984393;28;20443;-67
2021/08/21 05:19:47;;;;;;;2.17;0.60;;;;;;;14.67;69.04;100915.25;4985445;28;20214;-67
2021/08/21 05:22:26;;;;;;;0.63;0.53;;;;;;;14.85;68.40;100918.28;4988466;28;20214;-67
2021/08/21 05:24:55;;;;;;;1.90;0.60;;;;;;;15.01;67.88;100924.16;4988017;28;20246;-67
2021/08/21 05:27:24;;;;;;;2.40;0.67;;;;;;;15.14;68.88;100923.97;4987219;28;20234;-67
2021/08/21 05:29:53;;;;;;;0.50;0.50;;;;;;;15.33;68.07;100934.13;4977992;28;20743;-67
2021/08/21 05:32:21;;;;;;;0.50;0.50;;;;;;;15.50;68.07;100936.22;4976071;28;20690;-67
2021/08/21 05:34:50;;;;;;;0.60;0.60;;;;;;;15.60;68.58;100929.06;4982936;28;20197;-67
2021/08/21 05:37:19;;;;;;;0.53;0.53;;;;;;;15.82;67.26;100931.66;4987917;28;20683;-67
2021/08/21 05:39:47;;;;;;;0.90;0.60;;;;;;;15.89;67.63;100899.47;4985469;28;20217;-67
2021/08/21 05:42:15;;;;;;;1.17;0.50;;;;;;;16.23;67.28;100935.31;4981581;28;20232;-67
2021/08/21 05:44:43;;;;;;;0.43;0.40;;;;;;;16.40;66.93;100931.94;4984226;28;20275;-66
2021/08/21 05:47:11;;;;;;;1.33;0.70;;;;;;;16.36;66.03;100907.97;4986326;28;20204;-67
2021/08/21 05:49:39;;;;;;;0.43;0.43;;;;;;;16.75;65.90;100936.06;4980100;28;20254;-67
2021/08/21 05:52:09;;;;;;;0.40;0.40;;;;;;;16.91;65.58;100936.41;4987999;28;20220;-67
2021/08/21 05:54:37;;;;;;;0.33;0.33;;;;;;;17.13;64.00;100942.56;4976944;28;20232;-67
2021/08/21 05:57:14;;;;;;;0.60;0.60;;;;;;;17.34;64.12;100948.72;4982520;28;20204;-67
2021/08/21 05:59:42;;;;;;;2.10;0.80;;;;;;;17.48;64.00;100945.59;4991696;28;20208;-67
2021/08/21 06:02:10;;;;;;;1.03;0.40;;;;;;;17.63;64.05;100955.00;4984098;28;20279;-67
2021/08/21 06:04:38;;;;;;;0.50;0.50;;;;;;;17.72;62.66;100947.03;4981616;28;20246;-67
2021/08/21 06:07:06;;;;;;;0.50;0.50;;;;;;;17.86;61.34;100954.72;4990899;28;20519;-67
2021/08/21 06:09:36;;;;;;;0.50;0.50;;;;;;;18.08;61.06;100957.13;4981813;28;20212;-67
2021/08/21 06:12:04;;;;;;;4.33;0.50;;;;;;;18.22;59.98;100953.91;4985302;28;20223;-67
2021/08/21 06:14:37;;;;;;;1.30;0.40;;;;;;;18.40;59.72;100953.16;4988367;28;20577;-67
2021/08/21 06:17:05;;;;;;;0.57;0.57;;;;;;;18.55;59.94;100959.81;4991758;28;20196;-67
2021/08/21 06:19:33;;;;;;;0.20;0.20;;;;;;;18.41;59.66;100958.44;4998069;28;20204;-66
2021/08/21 06:22:01;;;;;;;0.20;0.20;;;;;;;18.73;59.24;100963.47;4990592;28;20203;-67
2021/08/21 06:24:29;;;;;;;1.50;0.60;;;;;;;18.91;58.59;100958.91;4999004;28;20208;-67
2021/08/21 06:26:59;;;;;;;0.83;0.43;;;;;;;19.08;57.69;100970.00;4989335;28;20196;-66
2021/08/21 06:29:34;;;;;;;0.30;0.30;;;;;;;19.28;57.21;100965.25;4991721;28;20605;-66
2021/08/21 06:32:03;;;;;;;0.97;0.60;;;;;;;19.35;55.71;100974.56;4991727;28;20230;-67
2021/08/21 06:34:33;;;;;;;0.37;0.37;;;;;;;19.41;56.88;100961.16;4990268;28;20208;-67
2021/08/21 06:37:02;;;;;;;0.57;0.40;;;;;;;19.59;57.01;100965.75;4987914;28;20214;-67
2021/08/21 06:39:30;;;;;;;0.40;0.40;;;;;;;19.75;56.77;100969.50;4992274;28;20204;-67
2021/08/21 06:41:59;;;;;;;0.57;0.47;;;;;;;19.78;56.62;100976.50;4992294;28;20207;-68
2021/08/21 06:44:27;;;;;;;0.33;0.33;;;;;;;19.81;56.61;100973.44;4990922;28;20204;-67
2021/08/21 06:46:55;;;;;;;0.37;0.37;;;;;;;19.77;56.73;100972.91;4992273;28;20207;-67
2021/08/21 06:49:24;;;;;;;0.37;0.37;;;;;;;19.88;55.86;100974.53;4991631;28;20196;-67
2021/08/21 06:51:52;;;;;;;0.30;0.30;;;;;;;19.93;56.49;100977.66;4990660;28;20220;-67
2021/08/21 06:54:20;;;;;;;0.93;0.47;;;;;;;20.26;55.92;100980.59;4992012;28;20220;-67
2021/08/21 06:56:48;;;;;;;0.30;0.30;;;;;;;20.22;54.96;100979.22;4991221;28;20696;-68
2021/08/21 06:59:18;;;;;;;0.40;0.40;;;;;;;20.27;54.93;100987.78;4985299;28;20259;-67
2021/08/21 07:01:46;;;;;;;0.50;0.50;;;;;;;20.54;54.48;100984.91;4991268;28;20236;-68
2021/08/21 07:04:15;;;;;;;0.47;0.40;;;;;;;20.73;54.16;100998.28;4990856;28;20689;-67
2021/08/21 07:06:43;;;;;;;0.50;0.50;;;;;;;20.83;53.71;100997.31;4988702;28;20263;-67
2021/08/21 07:09:11;;;;;;;0.50;0.50;;;;;;;20.94;53.82;100997.03;4990286;28;20627;-67
2021/08/21 07:11:39;;;;;;;0.50;0.50;;;;;;;20.62;52.29;101000.47;4989084;28;20224;-67
2021/08/21 07:14:07;;;;;;;0.50;0.50;;;;;;;20.26;52.44;101005.16;4987490;28;20275;-66
2021/08/21 07:16:37;;;;;;;0.40;0.40;;;;;;;20.08;52.46;101006.03;4988120;28;20274;-67
2021/08/21 07:19:06;;;;;;;0.40;0.40;;;;;;;20.52;52.90;101007.91;4989383;28;20663;-66
2021/08/21 07:21:34;;;;;;;0.40;0.40;;;;;;;20.85;53.29;101009.78;4988585;28;20196;-66
2021/08/21 07:24:02;;;;;;;0.20;0.20;;;;;;;21.05;52.56;101003.03;4989602;28;20564;-67
2021/08/21 07:26:30;;;;;;;1.13;0.50;;;;;;;21.13;50.13;101015.03;4989100;28;20210;-67
2021/08/21 07:28:58;;;;;;;0.30;0.30;;;;;;;21.29;50.70;101007.75;4990019;28;20571;-67
2021/08/21 07:31:26;;;;;;;0.83;0.43;;;;;;;21.07;50.58;101014.63;4989756;28;20627;-66
2021/08/21 07:33:58;;;;;;;0.30;0.30;;;;;;;21.22;50.02;101020.34;4989929;28;20679;-67
2021/08/21 07:36:26;;;;;;;0.87;0.20;;;;;;;21.34;50.20;101019.03;4990255;28;20569;-66
2021/08/21 07:38:54;;;;;;;0.20;0.20;;;;;;;21.34;47.72;101019.03;4990159;28;20725;-66
2021/08/21 07:41:22;;;;;;;0.30;0.30;;;;;;;20.66;49.33;100996.38;4989869;28;20625;-66
2021/08/21 07:43:50;;;;;;;0.70;0.30;;;;;;;21.03;49.46;101024.19;4988713;28;20205;-66
2021/08/21 07:46:18;;;;;;;0.37;0.37;;;;;;;21.23;50.34;101026.66;4989288;28;20659;-67
2021/08/21 07:48:46;;;;;;;0.27;0.27;;;;;;;21.53;49.52;101030.69;4987577;28;20754;-67
2021/08/21 07:51:16;;;;;;;0.40;0.40;;;;;;;22.04;48.46;101020.47;4989860;28;20629;-66
2021/08/21 07:53:44;;;;;;;0.37;0.20;;;;;;;22.31;47.57;101026.44;4987921;28;20682;-67
2021/08/21 07:56:14;;;;;;;0.20;0.20;;;;;;;22.55;47.20;101036.50;4989822;28;20579;-67
2021/08/21 07:58:42;;;;;;;0.50;0.50;;;;;;;22.62;46.49;101032.03;4989331;28;20706;-67
2021/08/21 08:01:10;;;;;;;0.37;0.37;;;;;;;22.82;46.11;101038.00;4988226;28;20267;-67
2021/08/21 08:03:39;;;;;;;0.20;0.20;;;;;;;22.95;45.61;101040.16;4987347;28;20204;-67
2021/08/21 08:06:07;;;;;;;0.30;0.30;;;;;;;23.15;45.61;101037.88;4989705;28;20733;-67
2021/08/21 08:08:36;;;;;;;0.20;0.20;;;;;;;23.13;44.87;101042.69;4988556;28;20207;-67
2021/08/21 08:11:04;;;;;;;0.40;0.40;;;;;;;23.13;43.85;101045.41;4989319;28;20203;-67
2021/08/21 08:13:32;;;;;;;0.23;0.23;;;;;;;23.26;43.98;101039.34;4987187;28;20227;-67
2021/08/21 08:16:01;;;;;;;0.27;0.27;;;;;;;23.23;44.02;101044.16;5003420;28;20299;-67
2021/08/21 08:18:29;;;;;;;0.50;0.50;;;;;;;23.42;43.30;101047.50;4972529;28;20212;-67
2021/08/21 08:20:57;;;;;;;0.43;0.40;;;;;;;23.06;43.95;101050.75;4989257;28;20263;-67
2021/08/21 08:23:25;;;;;;;0.30;0.30;;;;;;;23.26;43.88;101055.78;4990574;28;20207;-67
2021/08/21 08:25:55;;;;;;;0.73;0.20;;;;;;;23.64;43.68;101045.88;4988027;28;20258;-66
2021/08/21 08:28:26;;;;;;;0.30;0.30;;;;;;;23.59;43.60;101060.13;4988139;28;20200;-67
2021/08/21 08:30:54;;;;;;;0.40;0.40;;;;;;;23.20;42.88;101050.00;4989407;28;20262;-67
2021/08/21 08:33:22;;;;;;;0.23;0.23;;;;;;;23.53;43.95;101056.16;4988263;28;20220;-67
2021/08/21 08:35:51;;;;;;;0.30;0.30;;;;;;;23.64;42.82;101060.44;4989872;28;20207;-67
2021/08/21 08:38:20;;;;;;;0.80;0.63;;;;;;;23.63;42.85;101042.28;4987801;28;20204;-66
2021/08/21 08:40:49;;;;;;;0.33;0.33;;;;;;;23.64;42.71;101065.91;4989133;28;20203;-67
2021/08/21 08:43:22;;;;;;;0.50;0.50;;;;;;;23.80;42.87;101054.81;4989246;28;20675;-67
2021/08/21 08:45:51;;;;;;;1.00;0.90;;;;;;;23.91;43.08;101061.78;4989125;28;20239;-67
2021/08/21 08:48:19;;;;;;;0.40;0.40;;;;;;;23.79;42.55;101064.09;5002130;28;20200;-67
2021/08/21 08:50:48;;;;;;;0.40;0.40;;;;;;;23.98;43.12;101073.72;4985847;28;20226;-67
2021/08/21 08:53:16;;;;;;;0.30;0.30;;;;;;;24.22;43.86;101067.19;4984489;28;20219;-67
2021/08/21 08:55:46;;;;;;;0.20;0.20;;;;;;;24.00;41.99;101074.41;4985342;28;20629;-67
2021/08/21 08:58:14;;;;;;;0.40;0.40;;;;;;;24.03;41.74;101084.16;4989307;28;20279;-66
2021/08/21 09:00:44;;;;;;;3.30;0.43;;;;;;;24.19;42.66;101075.81;4987159;28;20679;-67
2021/08/21 09:03:20;;;;;;;0.43;0.43;;;;;;;24.39;42.26;101078.91;4985364;28;20251;-66
2021/08/21 09:05:49;;;;;;;0.93;0.40;;;;;;;23.93;41.21;101081.66;4988815;28;20211;-66
2021/08/21 09:08:22;;;;;;;0.53;0.53;;;;;;;23.97;41.23;101077.50;4989166;28;20627;-67
2021/08/21 09:10:50;;;;;;;0.40;0.40;;;;;;;24.40;41.41;101075.97;4987318;28;20676;-66
2021/08/21 09:13:20;;;;;;;0.50;0.50;;;;;;;24.30;41.48;101072.63;4989912;28;20784;-67
2021/08/21 09:15:50;;;;;;;0.30;0.30;;;;;;;24.63;41.64;101075.06;4989091;28;20296;-67
2021/08/21 09:18:20;;;;;;;0.40;0.40;;;;;;;24.49;39.32;101074.03;4994361;28;20259;-67
2021/08/21 09:21:08;;;;;;;0.40;0.40;;;;;;;24.24;40.03;101078.84;4988957;28;20674;-67
2021/08/21 09:23:38;;;;;;;0.47;0.47;;;;;;;23.98;41.12;101068.25;4988953;28;20208;-67
2021/08/21 09:26:09;;;;;;;0.60;0.40;;;;;;;23.92;40.76;101074.47;4986391;28;20246;-67
2021/08/21 09:28:38;;;;;;;0.30;0.30;;;;;;;23.71;41.20;101077.00;4989002;28;20200;-67
2021/08/21 09:31:10;;;;;;;4.30;0.87;;;;;;;24.22;40.45;101069.09;4988840;28;20655;-67
2021/08/21 09:33:41;;;;;;;3.50;1.27;;;;;;;24.06;40.71;101078.28;4979418;28;20260;-67
2021/08/21 09:36:12;;;;;;;1.13;0.93;;;;;;;23.77;41.32;101076.28;4993080;28;20208;-67
2021/08/21 09:38:41;;;;;;;5.40;2.60;;;;;;;23.85;41.51;101076.22;4988986;28;20199;-66
2021/08/21 09:41:10;;;;;;;2.07;1.30;;;;;;;24.10;41.19;101082.38;4991655;28;20203;-67
2021/08/21 09:43:39;;;;;;;1.47;1.13;;;;;;;24.59;40.74;101087.47;4994252;28;20196;-67
2021/08/21 09:46:14;;;;;;;0.90;0.90;;;;;;;24.67;39.48;101085.50;4990373;28;20193;-67
2021/08/21 09:48:59;;;;;;;0.50;0.50;;;;;;;24.37;40.52;101081.84;4992075;28;20631;-67
2021/08/21 09:51:38;;;;;;;0.93;0.50;;;;;;;24.30;40.54;101091.84;4992547;28;20212;-67
2021/08/21 09:54:09;;;;;;;0.60;0.60;;;;;;;24.33;40.28;101082.41;4990875;28;20212;-67
2021/08/21 09:56:38;;;;;;;0.80;0.80;;;;;;;24.10;40.32;101087.88;4991051;28;20203;-67
2021/08/21 09:59:07;;;;;;;1.00;0.90;;;;;;;23.96;39.95;101094.16;4992602;28;20204;-67
2021/08/21 10:01:37;;;;;;;12.33;1.57;;;;;;;23.64;40.15;101097.97;4992324;28;20765;-67
2021/08/21 10:04:06;;;;;;;6.60;1.33;;;;;;;23.99;40.68;101100.13;4992377;28;20207;-67
2021/08/21 10:06:34;;;;;;;3.53;1.07;;;;;;;23.88;40.92;101102.44;4992295;28;20208;-67
2021/08/21 10:09:07;;;;;;;5.93;1.80;;;;;;;23.82;41.41;101104.88;4990878;28;20215;-66
2021/08/21 10:11:36;;;;;;;9.20;2.03;;;;;;;24.14;39.93;101089.19;4992151;28;20243;-66
2021/08/21 10:14:05;;;;;;;1.23;0.80;;;;;;;24.44;40.95;101096.53;4991964;28;20302;-66
2021/08/21 10:16:34;;;;;;;1.97;0.90;;;;;;;24.71;39.85;101085.97;4991866;28;20667;-67
2021/08/21 10:19:04;;;;;;;2.73;0.80;;;;;;;24.99;39.81;101089.81;4991798;28;20208;-66
2021/08/21 10:21:32;;;;;;;1.67;0.90;;;;;;;24.95;39.33;101093.94;4994315;28;20196;-66
2021/08/21 10:24:00;;;;;;;0.70;0.70;;;;;;;24.36;39.37;101088.38;4991794;28;20280;-66
2021/08/21 10:26:34;;;;;;;0.60;0.60;;;;;;;24.55;40.30;101091.63;4991796;28;20643;-66
2021/08/21 10:29:03;;;;;;;0.50;0.50;;;;;;;24.65;39.54;101090.31;4991601;28;20206;-66
2021/08/21 10:31:40;;;;;;;1.20;1.10;;;;;;;24.84;39.20;101090.81;4991622;28;20266;-66
2021/08/21 10:34:11;;;;;;;0.57;0.57;;;;;;;24.85;39.05;101098.03;4991715;28;20297;-66
2021/08/21 10:36:41;;;;;;;2.33;0.70;;;;;;;24.92;39.29;101097.06;4991676;28;20200;-67
2021/08/21 10:39:25;;;;;;;0.23;0.23;;;;;;;24.31;38.33;101089.97;4987992;28;20572;-66
2021/08/21 10:41:55;;;;;;;0.30;0.30;;;;;;;24.36;38.75;101104.00;4989219;28;20716;-66
2021/08/21 10:44:43;;;;;;;0.23;0.23;;;;;;;24.46;39.60;101104.56;4990543;28;20196;-66
2021/08/21 10:47:36;;;;;;;2.00;0.60;;;;;;;24.70;39.43;101089.75;4992042;28;20203;-66
2021/08/21 10:50:31;;;;;;;0.40;0.40;;;;;;;24.84;37.68;101097.19;4992547;28;20254;-66
2021/08/21 10:53:00;;;;;;;1.07;0.40;;;;;;;24.33;38.52;101105.22;4989759;28;20208;-66
2021/08/21 10:55:36;;;;;;;0.30;0.30;;;;;;;24.69;38.16;101105.38;4989082;28;20196;-67
2021/08/21 10:58:15;;;;;;;0.37;0.37;;;;;;;24.73;38.37;101105.88;4990081;28;20235;-67
2021/08/21 11:00:57;;;;;;;0.43;0.30;;;;;;;24.98;38.07;101115.59;4987750;28;20204;-67
2021/08/21 11:03:47;;;;;;;0.83;0.40;;;;;;;24.93;37.23;101107.03;4990043;28;20269;-67
2021/08/21 11:06:33;;;;;;;0.90;0.90;;;;;;;24.97;36.97;101107.50;4990483;28;20211;-67
2021/08/21 11:09:05;;;;;;;1.30;1.30;;;;;;;25.11;38.52;101119.59;4990053;28;20701;-66
2021/08/21 11:11:38;;;;;;;4.73;1.30;;;;;;;25.19;38.55;101114.84;4991435;28;20295;-67
2021/08/21 11:14:08;;;;;;;0.73;0.60;;;;;;;25.18;37.58;101115.88;4988923;28;20310;-67
2021/08/21 11:16:49;;;;;;;0.60;0.60;;;;;;;25.01;37.91;101123.44;4991403;28;20239;-66
2021/08/21 11:19:33;;;;;;;1.07;0.70;;;;;;;24.70;36.99;101128.22;4988292;28;20287;-67
2021/08/21 11:22:29;;;;;;;0.50;0.50;;;;;;;24.71;39.05;101128.03;4991093;28;20208;-67
2021/08/21 11:25:25;;;;;;;0.70;0.70;;;;;;;24.75;39.38;101120.25;4989608;28;20278;-66
2021/08/21 11:28:02;;;;;;;0.43;0.43;;;;;;;24.61;38.04;101129.34;4989771;28;20208;-66
2021/08/21 11:30:30;;;;;;;0.43;0.43;;;;;;;24.62;37.69;101120.91;4990271;28;20258;-66
2021/08/21 11:33:13;;;;;;;0.57;0.57;;;;;;;24.36;36.05;101128.69;4990776;28;20294;-66
2021/08/21 11:35:51;;;;;;;2.60;0.50;;;;;;;24.35;36.81;101119.59;4988649;28;20204;-66
2021/08/21 11:38:28;;;;;;;0.40;0.40;;;;;;;24.62;38.48;101120.06;4989475;28;20210;-67
2021/08/21 11:41:04;;;;;;;0.60;0.60;;;;;;;25.28;37.75;101132.09;4988036;28;20298;-66
2021/08/21 11:43:37;;;;;;;0.40;0.40;;;;;;;25.05;35.07;101133.03;4988219;28;20227;-67